sensor_id;sensor_type;location;lat;lon;timestamp;temperature;humidity
22742;DHT22;11538;48.884;8.696;2023-04-03T00:01:07;7.00;99.90
22742;DHT22;11538;48.884;8.696;2023-04-03T00:03:34;7.00;99.90
22742;DHT22;11538;48.884;8.696;2023-04-03T00:06:03;6.90;99.90
22742;DHT22;11538;48.884;8.696;2023-04-03T00:08:32;6.90;99.90
22742;DHT22;11538;48.884;8.696;2023-04-03T00:10:59;6.90;99.90
22742;DHT22;11538;48.884;8.696;2023-04-03T00:13:27;6.90;99.90
22742;DHT22;11538;48.884;8.696;2023-04-03T00:15:54;6.90;99.90
22742;DHT22;11538;48.884;8.696;2023-04-03T00:18:22;6.80;99.90
22742;DHT22;11538;48.884;8.696;2023-04-03T00:20:49;6.80;99.90
22742;DHT22;11538;48.884;8.696;2023-04-03T00:23:16;6.80;99.90
22742;DHT22;11538;48.884;8.696;2023-04-03T00:25:44;6.80;99.90
22742;DHT22;11538;48.884;8.696;2023-04-03T00:28:11;6.80;99.90
22742;DHT22;11538;48.884;8.696;2023-04-03T00:30:38;6.80;99.90
22742;DHT22;11538;48.884;8.696;2023-04-03T00:33:06;6.80;99.90
22742;DHT22;11538;48.884;8.696;2023-04-03T00:35:34;6.80;99.90
22742;DHT22;11538;48.884;8.696;2023-04-03T00:38:01;6.80;99.90
22742;DHT22;11538;48.884;8.696;2023-04-03T00:40:34;6.80;99.90
22742;DHT22;11538;48.884;8.696;2023-04-03T00:43:15;6.80;99.90
22742;DHT22;11538;48.884;8.696;2023-04-03T00:45:52;6.80;99.90
22742;DHT22;11538;48.884;8.696;2023-04-03T00:50:56;6.80;99.90
22742;DHT22;11538;48.884;8.696;2023-04-03T00:53:43;6.80;99.90
22742;DHT22;11538;48.884;8.696;2023-04-03T00:56:18;6.80;99.90
22742;DHT22;11538;48.884;8.696;2023-04-03T00:58:53;6.80;99.90
22742;DHT22;11538;48.884;8.696;2023-04-03T01:01:27;6.80;99.90
22742;DHT22;11538;48.884;8.696;2023-04-03T01:03:55;6.70;99.90
22742;DHT22;11538;48.884;8.696;2023-04-03T01:06:29;6.70;99.90
22742;DHT22;11538;48.884;8.696;2023-04-03T01:09:00;6.70;99.90
22742;DHT22;11538;48.884;8.696;2023-04-03T01:11:27;6.70;99.90
22742;DHT22;11538;48.884;8.696;2023-04-03T01:13:54;6.70;99.90
22742;DHT22;11538;48.884;8.696;2023-04-03T01:16:21;6.60;99.90
22742;DHT22;11538;48.884;8.696;2023-04-03T01:18:48;6.60;99.90
22742;DHT22;11538;48.884;8.696;2023-04-03T01:21:36;6.60;99.90
22742;DHT22;11538;48.884;8.696;2023-04-03T01:24:33;6.60;99.90
22742;DHT22;11538;48.884;8.696;2023-04-03T01:27:05;6.60;99.90
22742;DHT22;11538;48.884;8.696;2023-04-03T01:29:34;6.60;99.90
22742;DHT22;11538;48.884;8.696;2023-04-03T01:32:03;6.60;99.90
22742;DHT22;11538;48.884;8.696;2023-04-03T01:34:31;6.50;99.90
22742;DHT22;11538;48.884;8.696;2023-04-03T01:36:58;6.50;99.90
22742;DHT22;11538;48.884;8.696;2023-04-03T01:39:25;6.50;99.90
22742;DHT22;11538;48.884;8.696;2023-04-03T01:41:52;6.50;99.90
22742;DHT22;11538;48.884;8.696;2023-04-03T01:44:22;6.50;99.90
22742;DHT22;11538;48.884;8.696;2023-04-03T01:46:48;6.40;99.90
22742;DHT22;11538;48.884;8.696;2023-04-03T01:49:15;6.40;99.90
22742;DHT22;11538;48.884;8.696;2023-04-03T01:51:42;6.40;99.90
22742;DHT22;11538;48.884;8.696;2023-04-03T01:54:09;6.40;99.90
22742;DHT22;11538;48.884;8.696;2023-04-03T01:56:36;6.40;99.90
22742;DHT22;11538;48.884;8.696;2023-04-03T01:59:02;6.40;99.90
22742;DHT22;11538;48.884;8.696;2023-04-03T02:01:29;6.40;99.90
22742;DHT22;11538;48.884;8.696;2023-04-03T02:03:56;6.30;99.90
22742;DHT22;11538;48.884;8.696;2023-04-03T02:06:23;6.30;99.90
22742;DHT22;11538;48.884;8.696;2023-04-03T02:08:51;6.30;99.90
22742;DHT22;11538;48.884;8.696;2023-04-03T02:11:18;6.30;99.90
22742;DHT22;11538;48.884;8.696;2023-04-03T02:13:45;6.30;99.90
22742;DHT22;11538;48.884;8.696;2023-04-03T02:16:12;6.20;99.90
22742;DHT22;11538;48.884;8.696;2023-04-03T02:18:40;6.20;99.90
22742;DHT22;11538;48.884;8.696;2023-04-03T02:21:06;6.20;99.90
22742;DHT22;11538;48.884;8.696;2023-04-03T02:23:33;6.30;99.90
22742;DHT22;11538;48.884;8.696;2023-04-03T02:26:13;6.30;99.90
22742;DHT22;11538;48.884;8.696;2023-04-03T02:28:42;6.30;99.90
22742;DHT22;11538;48.884;8.696;2023-04-03T02:31:10;6.30;99.90
22742;DHT22;11538;48.884;8.696;2023-04-03T02:33:37;6.20;99.90
22742;DHT22;11538;48.884;8.696;2023-04-03T02:36:06;6.20;99.90
22742;DHT22;11538;48.884;8.696;2023-04-03T02:38:33;6.20;99.90
22742;DHT22;11538;48.884;8.696;2023-04-03T02:41:03;6.10;99.90
22742;DHT22;11538;48.884;8.696;2023-04-03T02:43:31;6.10;99.90
22742;DHT22;11538;48.884;8.696;2023-04-03T02:45:58;6.00;99.90
22742;DHT22;11538;48.884;8.696;2023-04-03T02:48:26;6.00;99.90
22742;DHT22;11538;48.884;8.696;2023-04-03T02:50:53;6.00;99.90
22742;DHT22;11538;48.884;8.696;2023-04-03T02:53:20;6.00;99.90
22742;DHT22;11538;48.884;8.696;2023-04-03T02:55:47;5.90;99.90
22742;DHT22;11538;48.884;8.696;2023-04-03T02:58:15;5.90;99.90
22742;DHT22;11538;48.884;8.696;2023-04-03T03:00:42;5.90;99.90
22742;DHT22;11538;48.884;8.696;2023-04-03T03:03:09;5.90;99.90
22742;DHT22;11538;48.884;8.696;2023-04-03T03:05:37;5.90;99.90
22742;DHT22;11538;48.884;8.696;2023-04-03T03:08:03;5.90;99.90
22742;DHT22;11538;48.884;8.696;2023-04-03T03:10:30;5.90;99.90
22742;DHT22;11538;48.884;8.696;2023-04-03T03:12:57;5.90;99.90
22742;DHT22;11538;48.884;8.696;2023-04-03T03:15:24;5.90;99.90
22742;DHT22;11538;48.884;8.696;2023-04-03T03:17:51;5.90;99.90
22742;DHT22;11538;48.884;8.696;2023-04-03T03:20:18;5.90;99.90
22742;DHT22;11538;48.884;8.696;2023-04-03T03:22:45;5.90;99.90
22742;DHT22;11538;48.884;8.696;2023-04-03T03:25:11;5.90;99.90
22742;DHT22;11538;48.884;8.696;2023-04-03T03:27:38;5.90;99.90
22742;DHT22;11538;48.884;8.696;2023-04-03T03:30:05;5.90;99.90
22742;DHT22;11538;48.884;8.696;2023-04-03T03:32:33;5.80;99.90
22742;DHT22;11538;48.884;8.696;2023-04-03T03:35:00;5.80;99.90
22742;DHT22;11538;48.884;8.696;2023-04-03T03:37:26;5.80;99.90
22742;DHT22;11538;48.884;8.696;2023-04-03T03:39:54;5.80;99.90
22742;DHT22;11538;48.884;8.696;2023-04-03T03:42:21;5.90;99.90
22742;DHT22;11538;48.884;8.696;2023-04-03T03:44:48;5.90;99.90
22742;DHT22;11538;48.884;8.696;2023-04-03T03:47:15;5.80;99.90
22742;DHT22;11538;48.884;8.696;2023-04-03T03:49:42;5.80;99.90
22742;DHT22;11538;48.884;8.696;2023-04-03T03:52:09;5.80;99.90
22742;DHT22;11538;48.884;8.696;2023-04-03T03:54:37;5.80;99.90
22742;DHT22;11538;48.884;8.696;2023-04-03T03:57:04;5.80;99.90
22742;DHT22;11538;48.884;8.696;2023-04-03T03:59:31;5.80;99.90
22742;DHT22;11538;48.884;8.696;2023-04-03T04:01:58;5.80;99.90
22742;DHT22;11538;48.884;8.696;2023-04-03T04:04:25;5.80;99.90
22742;DHT22;11538;48.884;8.696;2023-04-03T04:06:52;5.80;99.90
22742;DHT22;11538;48.884;8.696;2023-04-03T04:09:18;5.80;99.90
22742;DHT22;11538;48.884;8.696;2023-04-03T04:11:46;5.80;99.90
22742;DHT22;11538;48.884;8.696;2023-04-03T04:14:12;5.90;99.90
22742;DHT22;11538;48.884;8.696;2023-04-03T04:16:39;5.90;99.90
22742;DHT22;11538;48.884;8.696;2023-04-03T04:19:06;5.80;99.90
22742;DHT22;11538;48.884;8.696;2023-04-03T04:21:34;5.90;99.90
22742;DHT22;11538;48.884;8.696;2023-04-03T04:24:01;5.80;99.90
22742;DHT22;11538;48.884;8.696;2023-04-03T04:26:28;5.80;99.90
22742;DHT22;11538;48.884;8.696;2023-04-03T04:28:55;5.80;99.90
22742;DHT22;11538;48.884;8.696;2023-04-03T04:31:22;5.80;99.90
22742;DHT22;11538;48.884;8.696;2023-04-03T04:33:49;5.80;99.90
22742;DHT22;11538;48.884;8.696;2023-04-03T04:36:16;5.80;99.90
22742;DHT22;11538;48.884;8.696;2023-04-03T04:38:43;5.90;99.90
22742;DHT22;11538;48.884;8.696;2023-04-03T04:41:10;5.90;99.90
22742;DHT22;11538;48.884;8.696;2023-04-03T04:43:36;5.90;99.90
22742;DHT22;11538;48.884;8.696;2023-04-03T04:46:13;5.90;99.90
22742;DHT22;11538;48.884;8.696;2023-04-03T04:48:40;5.80;99.90
22742;DHT22;11538;48.884;8.696;2023-04-03T04:51:07;5.90;99.90
22742;DHT22;11538;48.884;8.696;2023-04-03T04:53:34;5.90;99.90
22742;DHT22;11538;48.884;8.696;2023-04-03T04:56:01;5.90;99.90
22742;DHT22;11538;48.884;8.696;2023-04-03T04:58:28;5.90;99.90
22742;DHT22;11538;48.884;8.696;2023-04-03T05:01:03;5.90;99.90
22742;DHT22;11538;48.884;8.696;2023-04-03T05:03:34;5.90;99.90
22742;DHT22;11538;48.884;8.696;2023-04-03T05:06:01;5.90;99.90
22742;DHT22;11538;48.884;8.696;2023-04-03T05:08:29;5.80;99.90
22742;DHT22;11538;48.884;8.696;2023-04-03T05:10:56;5.90;99.90
22742;DHT22;11538;48.884;8.696;2023-04-03T05:13:23;5.90;99.90
22742;DHT22;11538;48.884;8.696;2023-04-03T05:15:49;5.90;99.90
22742;DHT22;11538;48.884;8.696;2023-04-03T05:18:17;5.90;99.90
22742;DHT22;11538;48.884;8.696;2023-04-03T05:20:43;6.00;99.90
22742;DHT22;11538;48.884;8.696;2023-04-03T05:23:11;6.00;99.90
22742;DHT22;11538;48.884;8.696;2023-04-03T05:25:38;6.00;99.90
22742;DHT22;11538;48.884;8.696;2023-04-03T05:28:06;6.00;99.90
22742;DHT22;11538;48.884;8.696;2023-04-03T05:30:33;6.00;99.90
22742;DHT22;11538;48.884;8.696;2023-04-03T05:33:00;6.10;99.90
22742;DHT22;11538;48.884;8.696;2023-04-03T05:35:28;6.00;99.90
22742;DHT22;11538;48.884;8.696;2023-04-03T05:37:55;6.10;99.90
22742;DHT22;11538;48.884;8.696;2023-04-03T05:40:22;6.10;99.90
22742;DHT22;11538;48.884;8.696;2023-04-03T05:42:49;6.10;99.90
22742;DHT22;11538;48.884;8.696;2023-04-03T05:45:16;6.20;99.90
22742;DHT22;11538;48.884;8.696;2023-04-03T05:47:43;6.10;99.90
22742;DHT22;11538;48.884;8.696;2023-04-03T05:50:10;6.10;99.90
22742;DHT22;11538;48.884;8.696;2023-04-03T05:52:39;6.10;99.90
22742;DHT22;11538;48.884;8.696;2023-04-03T05:55:09;6.10;99.90
22742;DHT22;11538;48.884;8.696;2023-04-03T05:57:36;6.10;99.90
22742;DHT22;11538;48.884;8.696;2023-04-03T06:00:08;6.10;99.90
22742;DHT22;11538;48.884;8.696;2023-04-03T06:02:39;6.10;99.90
22742;DHT22;11538;48.884;8.696;2023-04-03T06:05:06;6.10;99.90
22742;DHT22;11538;48.884;8.696;2023-04-03T06:07:35;6.10;99.90
22742;DHT22;11538;48.884;8.696;2023-04-03T06:10:03;6.10;99.90
22742;DHT22;11538;48.884;8.696;2023-04-03T06:12:30;6.20;99.90
22742;DHT22;11538;48.884;8.696;2023-04-03T06:14:57;6.20;99.90
22742;DHT22;11538;48.884;8.696;2023-04-03T06:17:24;6.20;99.90
22742;DHT22;11538;48.884;8.696;2023-04-03T06:19:51;6.30;99.90
22742;DHT22;11538;48.884;8.696;2023-04-03T06:22:21;6.30;99.90
22742;DHT22;11538;48.884;8.696;2023-04-03T06:24:52;6.40;99.90
22742;DHT22;11538;48.884;8.696;2023-04-03T06:27:18;6.40;99.90
22742;DHT22;11538;48.884;8.696;2023-04-03T06:29:46;6.40;99.90
22742;DHT22;11538;48.884;8.696;2023-04-03T06:32:12;6.40;99.90
22742;DHT22;11538;48.884;8.696;2023-04-03T06:34:39;6.40;99.90
22742;DHT22;11538;48.884;8.696;2023-04-03T06:37:06;6.40;99.90
22742;DHT22;11538;48.884;8.696;2023-04-03T06:39:33;6.40;99.90
22742;DHT22;11538;48.884;8.696;2023-04-03T06:42:00;6.40;99.90
22742;DHT22;11538;48.884;8.696;2023-04-03T06:44:27;6.40;99.90
22742;DHT22;11538;48.884;8.696;2023-04-03T06:46:54;6.40;99.90
22742;DHT22;11538;48.884;8.696;2023-04-03T06:49:21;6.40;99.90
22742;DHT22;11538;48.884;8.696;2023-04-03T06:51:48;6.50;99.90
22742;DHT22;11538;48.884;8.696;2023-04-03T06:54:15;6.50;99.90
22742;DHT22;11538;48.884;8.696;2023-04-03T06:56:42;6.60;99.90
22742;DHT22;11538;48.884;8.696;2023-04-03T06:59:10;6.60;99.90
22742;DHT22;11538;48.884;8.696;2023-04-03T07:01:39;6.60;99.90
22742;DHT22;11538;48.884;8.696;2023-04-03T07:04:07;6.60;99.90
22742;DHT22;11538;48.884;8.696;2023-04-03T07:06:34;6.70;99.90
22742;DHT22;11538;48.884;8.696;2023-04-03T07:09:02;6.70;99.90
22742;DHT22;11538;48.884;8.696;2023-04-03T07:11:30;6.70;99.90
22742;DHT22;11538;48.884;8.696;2023-04-03T07:13:57;6.80;99.90
22742;DHT22;11538;48.884;8.696;2023-04-03T07:16:24;6.80;99.90
22742;DHT22;11538;48.884;8.696;2023-04-03T07:18:51;6.80;99.90
22742;DHT22;11538;48.884;8.696;2023-04-03T07:21:18;6.80;99.90
22742;DHT22;11538;48.884;8.696;2023-04-03T07:23:45;6.90;99.90
22742;DHT22;11538;48.884;8.696;2023-04-03T07:26:11;6.90;99.90
22742;DHT22;11538;48.884;8.696;2023-04-03T07:28:38;7.00;99.90
22742;DHT22;11538;48.884;8.696;2023-04-03T07:31:11;7.00;99.90
22742;DHT22;11538;48.884;8.696;2023-04-03T07:33:41;7.10;99.90
22742;DHT22;11538;48.884;8.696;2023-04-03T07:36:09;7.10;99.90
22742;DHT22;11538;48.884;8.696;2023-04-03T07:38:37;7.10;99.90
22742;DHT22;11538;48.884;8.696;2023-04-03T07:41:04;7.10;99.90
22742;DHT22;11538;48.884;8.696;2023-04-03T07:43:32;7.10;99.90
22742;DHT22;11538;48.884;8.696;2023-04-03T07:46:00;7.20;99.90
22742;DHT22;11538;48.884;8.696;2023-04-03T07:48:27;7.20;99.90
22742;DHT22;11538;48.884;8.696;2023-04-03T07:50:59;7.30;99.90
22742;DHT22;11538;48.884;8.696;2023-04-03T07:53:28;7.40;99.90
22742;DHT22;11538;48.884;8.696;2023-04-03T07:55:56;7.40;99.90
22742;DHT22;11538;48.884;8.696;2023-04-03T07:58:25;7.50;99.90
22742;DHT22;11538;48.884;8.696;2023-04-03T08:00:52;7.50;99.90
22742;DHT22;11538;48.884;8.696;2023-04-03T08:03:19;7.60;99.90
22742;DHT22;11538;48.884;8.696;2023-04-03T08:05:48;7.60;99.90
22742;DHT22;11538;48.884;8.696;2023-04-03T08:08:19;7.70;99.90
22742;DHT22;11538;48.884;8.696;2023-04-03T08:10:52;7.70;99.90
22742;DHT22;11538;48.884;8.696;2023-04-03T08:13:20;7.70;99.90
22742;DHT22;11538;48.884;8.696;2023-04-03T08:15:48;7.90;99.90
22742;DHT22;11538;48.884;8.696;2023-04-03T08:18:15;8.10;99.90
22742;DHT22;11538;48.884;8.696;2023-04-03T08:20:42;8.30;99.90
22742;DHT22;11538;48.884;8.696;2023-04-03T08:23:10;8.50;99.90
22742;DHT22;11538;48.884;8.696;2023-04-03T08:25:38;8.60;99.90
22742;DHT22;11538;48.884;8.696;2023-04-03T08:28:07;8.70;99.90
22742;DHT22;11538;48.884;8.696;2023-04-03T08:30:35;8.70;99.90
22742;DHT22;11538;48.884;8.696;2023-04-03T08:33:03;8.70;99.90
22742;DHT22;11538;48.884;8.696;2023-04-03T08:35:29;8.70;99.90
22742;DHT22;11538;48.884;8.696;2023-04-03T08:37:57;8.70;99.90
22742;DHT22;11538;48.884;8.696;2023-04-03T08:40:24;8.70;99.90
22742;DHT22;11538;48.884;8.696;2023-04-03T08:45:45;8.70;99.90
22742;DHT22;11538;48.884;8.696;2023-04-03T08:48:31;8.80;99.90
22742;DHT22;11538;48.884;8.696;2023-04-03T08:51:08;8.90;99.90
22742;DHT22;11538;48.884;8.696;2023-04-03T08:53:53;8.90;99.90
22742;DHT22;11538;48.884;8.696;2023-04-03T08:56:26;8.90;99.90
22742;DHT22;11538;48.884;8.696;2023-04-03T08:59:04;9.00;99.90
22742;DHT22;11538;48.884;8.696;2023-04-03T09:01:40;9.10;99.90
22742;DHT22;11538;48.884;8.696;2023-04-03T09:04:13;9.10;99.90
22742;DHT22;11538;48.884;8.696;2023-04-03T09:06:50;9.10;99.90
22742;DHT22;11538;48.884;8.696;2023-04-03T09:09:29;9.10;99.90
22742;DHT22;11538;48.884;8.696;2023-04-03T09:12:25;9.10;99.90
22742;DHT22;11538;48.884;8.696;2023-04-03T09:23:54;9.30;99.90
22742;DHT22;11538;48.884;8.696;2023-04-03T09:26:35;9.40;99.90
22742;DHT22;11538;48.884;8.696;2023-04-03T09:29:07;9.70;99.90
22742;DHT22;11538;48.884;8.696;2023-04-03T09:31:42;9.80;99.90
22742;DHT22;11538;48.884;8.696;2023-04-03T09:36:59;10.10;99.90
22742;DHT22;11538;48.884;8.696;2023-04-03T09:39:47;10.10;99.90
22742;DHT22;11538;48.884;8.696;2023-04-03T09:42:24;10.10;99.90
22742;DHT22;11538;48.884;8.696;2023-04-03T09:44:57;10.20;99.90
22742;DHT22;11538;48.884;8.696;2023-04-03T09:47:30;10.40;99.90
22742;DHT22;11538;48.884;8.696;2023-04-03T09:52:42;10.60;99.90
22742;DHT22;11538;48.884;8.696;2023-04-03T09:55:15;10.50;99.90
22742;DHT22;11538;48.884;8.696;2023-04-03T09:57:45;10.40;99.90
22742;DHT22;11538;48.884;8.696;2023-04-03T10:02:55;10.30;99.90
22742;DHT22;11538;48.884;8.696;2023-04-03T10:05:27;10.20;99.90
22742;DHT22;11538;48.884;8.696;2023-04-03T10:11:15;10.20;99.90
22742;DHT22;11538;48.884;8.696;2023-04-03T10:13:53;10.20;99.90
22742;DHT22;11538;48.884;8.696;2023-04-03T10:19:03;10.10;99.90
22742;DHT22;11538;48.884;8.696;2023-04-03T10:21:48;10.00;99.90
22742;DHT22;11538;48.884;8.696;2023-04-03T10:24:39;9.90;99.90
22742;DHT22;11538;48.884;8.696;2023-04-03T10:30:27;9.80;99.90
22742;DHT22;11538;48.884;8.696;2023-04-03T10:33:23;9.80;99.90
22742;DHT22;11538;48.884;8.696;2023-04-03T10:38:55;9.60;99.90
22742;DHT22;11538;48.884;8.696;2023-04-03T10:41:56;9.60;99.90
22742;DHT22;11538;48.884;8.696;2023-04-03T10:44:52;9.60;99.90
22742;DHT22;11538;48.884;8.696;2023-04-03T10:47:28;9.50;99.90
22742;DHT22;11538;48.884;8.696;2023-04-03T10:50:41;9.50;99.90
22742;DHT22;11538;48.884;8.696;2023-04-03T11:01:55;9.60;99.90
22742;DHT22;11538;48.884;8.696;2023-04-03T11:04:28;9.60;99.90
22742;DHT22;11538;48.884;8.696;2023-04-03T11:07:11;9.60;99.90
22742;DHT22;11538;48.884;8.696;2023-04-03T11:09:48;9.60;99.90
22742;DHT22;11538;48.884;8.696;2023-04-03T11:12:48;9.50;99.90
22742;DHT22;11538;48.884;8.696;2023-04-03T11:15:27;9.40;99.90
22742;DHT22;11538;48.884;8.696;2023-04-03T11:18:11;9.40;99.90
22742;DHT22;11538;48.884;8.696;2023-04-03T11:20:56;9.30;99.90
22742;DHT22;11538;48.884;8.696;2023-04-03T11:23:32;9.40;99.90
22742;DHT22;11538;48.884;8.696;2023-04-03T11:26:18;9.40;99.90
22742;DHT22;11538;48.884;8.696;2023-04-03T11:28:53;9.40;99.90
22742;DHT22;11538;48.884;8.696;2023-04-03T11:34:45;9.30;99.90
22742;DHT22;11538;48.884;8.696;2023-04-03T11:37:39;9.20;99.90
22742;DHT22;11538;48.884;8.696;2023-04-03T11:40:26;9.10;99.90
22742;DHT22;11538;48.884;8.696;2023-04-03T11:45:28;9.10;99.90
22742;DHT22;11538;48.884;8.696;2023-04-03T11:50:52;9.20;99.90
22742;DHT22;11538;48.884;8.696;2023-04-03T11:53:35;9.30;99.90
22742;DHT22;11538;48.884;8.696;2023-04-03T12:01:53;9.40;99.90
22742;DHT22;11538;48.884;8.696;2023-04-03T12:04:27;9.50;99.90
22742;DHT22;11538;48.884;8.696;2023-04-03T12:07:11;9.50;99.90
22742;DHT22;11538;48.884;8.696;2023-04-03T12:12:27;9.60;99.90
22742;DHT22;11538;48.884;8.696;2023-04-03T12:15:41;9.60;99.90
22742;DHT22;11538;48.884;8.696;2023-04-03T12:21:11;9.80;99.90
22742;DHT22;11538;48.884;8.696;2023-04-03T12:24:15;10.00;99.90
22742;DHT22;11538;48.884;8.696;2023-04-03T12:29:28;10.40;99.90
22742;DHT22;11538;48.884;8.696;2023-04-03T12:35:24;10.50;99.90
22742;DHT22;11538;48.884;8.696;2023-04-03T12:41:30;10.40;99.90
22742;DHT22;11538;48.884;8.696;2023-04-03T12:47:22;10.30;99.90
22742;DHT22;11538;48.884;8.696;2023-04-03T12:49:53;10.30;99.90
22742;DHT22;11538;48.884;8.696;2023-04-03T12:52:50;10.20;99.90
22742;DHT22;11538;48.884;8.696;2023-04-03T12:55:24;10.20;99.90
22742;DHT22;11538;48.884;8.696;2023-04-03T12:57:51;10.20;99.90
22742;DHT22;11538;48.884;8.696;2023-04-03T13:00:33;10.20;99.90
22742;DHT22;11538;48.884;8.696;2023-04-03T13:03:02;10.20;99.90
22742;DHT22;11538;48.884;8.696;2023-04-03T13:05:32;10.20;99.90
22742;DHT22;11538;48.884;8.696;2023-04-03T13:08:10;10.20;99.90
22742;DHT22;11538;48.884;8.696;2023-04-03T13:10:58;10.20;99.90
22742;DHT22;11538;48.884;8.696;2023-04-03T13:13:32;10.20;99.90
22742;DHT22;11538;48.884;8.696;2023-04-03T13:15:59;10.10;99.90
22742;DHT22;11538;48.884;8.696;2023-04-03T13:18:37;10.00;99.90
22742;DHT22;11538;48.884;8.696;2023-04-03T13:21:08;9.90;99.90
22742;DHT22;11538;48.884;8.696;2023-04-03T13:23:48;9.90;99.90
22742;DHT22;11538;48.884;8.696;2023-04-03T13:26:26;9.90;99.90
22742;DHT22;11538;48.884;8.696;2023-04-03T13:29:02;9.90;99.90
22742;DHT22;11538;48.884;8.696;2023-04-03T13:31:37;9.90;99.90
22742;DHT22;11538;48.884;8.696;2023-04-03T13:36:40;9.90;99.90
22742;DHT22;11538;48.884;8.696;2023-04-03T13:41:43;9.90;99.90
22742;DHT22;11538;48.884;8.696;2023-04-03T13:46:52;10.00;99.90
22742;DHT22;11538;48.884;8.696;2023-04-03T13:49:37;10.10;99.90
22742;DHT22;11538;48.884;8.696;2023-04-03T13:52:28;10.20;99.90
22742;DHT22;11538;48.884;8.696;2023-04-03T13:55:19;10.20;99.90
22742;DHT22;11538;48.884;8.696;2023-04-03T13:58:51;10.30;99.90
22742;DHT22;11538;48.884;8.696;2023-04-03T14:03:54;10.20;99.90
22742;DHT22;11538;48.884;8.696;2023-04-03T14:06:24;10.10;99.90
22742;DHT22;11538;48.884;8.696;2023-04-03T14:08:52;10.10;99.90
22742;DHT22;11538;48.884;8.696;2023-04-03T14:11:22;10.10;99.90
22742;DHT22;11538;48.884;8.696;2023-04-03T14:13:53;10.00;99.90
22742;DHT22;11538;48.884;8.696;2023-04-03T14:16:31;9.90;99.90
22742;DHT22;11538;48.884;8.696;2023-04-03T14:19:04;9.90;99.90
22742;DHT22;11538;48.884;8.696;2023-04-03T14:21:31;9.90;99.90
22742;DHT22;11538;48.884;8.696;2023-04-03T14:23:58;9.90;99.90
22742;DHT22;11538;48.884;8.696;2023-04-03T14:26:28;10.00;99.90
22742;DHT22;11538;48.884;8.696;2023-04-03T14:28:56;10.00;99.90
22742;DHT22;11538;48.884;8.696;2023-04-03T14:31:24;10.00;99.90
22742;DHT22;11538;48.884;8.696;2023-04-03T14:33:52;10.00;99.90
22742;DHT22;11538;48.884;8.696;2023-04-03T14:36:27;10.00;99.90
22742;DHT22;11538;48.884;8.696;2023-04-03T14:38:55;10.00;99.90
22742;DHT22;11538;48.884;8.696;2023-04-03T14:41:24;10.10;99.90
22742;DHT22;11538;48.884;8.696;2023-04-03T14:43:53;10.10;99.90
22742;DHT22;11538;48.884;8.696;2023-04-03T14:46:32;10.00;99.90
22742;DHT22;11538;48.884;8.696;2023-04-03T14:49:24;10.00;99.90
22742;DHT22;11538;48.884;8.696;2023-04-03T14:51:53;10.00;99.90
22742;DHT22;11538;48.884;8.696;2023-04-03T14:54:22;9.90;99.90
22742;DHT22;11538;48.884;8.696;2023-04-03T14:56:55;9.90;99.90
22742;DHT22;11538;48.884;8.696;2023-04-03T14:59:30;9.90;99.90
22742;DHT22;11538;48.884;8.696;2023-04-03T15:01:58;9.80;99.90
22742;DHT22;11538;48.884;8.696;2023-04-03T15:04:25;9.80;99.90
22742;DHT22;11538;48.884;8.696;2023-04-03T15:06:54;9.80;99.90
22742;DHT22;11538;48.884;8.696;2023-04-03T15:09:26;9.70;99.90
22742;DHT22;11538;48.884;8.696;2023-04-03T15:11:55;9.70;99.90
22742;DHT22;11538;48.884;8.696;2023-04-03T15:14:22;9.60;99.90
22742;DHT22;11538;48.884;8.696;2023-04-03T15:17:08;9.60;99.90
22742;DHT22;11538;48.884;8.696;2023-04-03T15:19:41;9.60;99.90
22742;DHT22;11538;48.884;8.696;2023-04-03T15:22:19;9.60;99.90
22742;DHT22;11538;48.884;8.696;2023-04-03T15:24:46;9.70;99.90
22742;DHT22;11538;48.884;8.696;2023-04-03T15:27:14;9.80;99.90
22742;DHT22;11538;48.884;8.696;2023-04-03T15:29:42;9.80;99.90
22742;DHT22;11538;48.884;8.696;2023-04-03T15:32:10;9.80;99.90
22742;DHT22;11538;48.884;8.696;2023-04-03T15:34:40;9.80;99.90
22742;DHT22;11538;48.884;8.696;2023-04-03T15:37:07;9.90;99.90
22742;DHT22;11538;48.884;8.696;2023-04-03T15:39:34;9.90;99.90
22742;DHT22;11538;48.884;8.696;2023-04-03T15:42:01;10.00;99.90
22742;DHT22;11538;48.884;8.696;2023-04-03T15:44:34;10.00;99.90
22742;DHT22;11538;48.884;8.696;2023-04-03T15:47:01;10.10;99.90
22742;DHT22;11538;48.884;8.696;2023-04-03T15:49:29;10.10;99.90
22742;DHT22;11538;48.884;8.696;2023-04-03T15:51:59;10.10;99.90
22742;DHT22;11538;48.884;8.696;2023-04-03T15:54:26;10.10;99.90
22742;DHT22;11538;48.884;8.696;2023-04-03T15:56:53;10.10;99.90
22742;DHT22;11538;48.884;8.696;2023-04-03T15:59:20;10.00;99.90
22742;DHT22;11538;48.884;8.696;2023-04-03T16:01:48;10.00;99.90
22742;DHT22;11538;48.884;8.696;2023-04-03T16:04:17;9.90;99.90
22742;DHT22;11538;48.884;8.696;2023-04-03T16:06:46;9.90;99.90
22742;DHT22;11538;48.884;8.696;2023-04-03T16:09:13;9.90;99.90
22742;DHT22;11538;48.884;8.696;2023-04-03T16:11:40;9.90;99.90
22742;DHT22;11538;48.884;8.696;2023-04-03T16:14:07;9.80;99.90
22742;DHT22;11538;48.884;8.696;2023-04-03T16:16:35;9.80;99.90
22742;DHT22;11538;48.884;8.696;2023-04-03T16:19:03;9.70;99.90
22742;DHT22;11538;48.884;8.696;2023-04-03T16:21:32;9.70;99.90
22742;DHT22;11538;48.884;8.696;2023-04-03T16:24:00;9.60;99.90
22742;DHT22;11538;48.884;8.696;2023-04-03T16:26:27;9.60;99.90
22742;DHT22;11538;48.884;8.696;2023-04-03T16:28:54;9.60;99.90
22742;DHT22;11538;48.884;8.696;2023-04-03T16:31:22;9.60;99.90
22742;DHT22;11538;48.884;8.696;2023-04-03T16:33:50;9.50;99.90
22742;DHT22;11538;48.884;8.696;2023-04-03T16:36:18;9.50;99.90
22742;DHT22;11538;48.884;8.696;2023-04-03T16:38:44;9.50;99.90
22742;DHT22;11538;48.884;8.696;2023-04-03T16:41:12;9.40;99.90
22742;DHT22;11538;48.884;8.696;2023-04-03T16:43:41;9.40;99.90
22742;DHT22;11538;48.884;8.696;2023-04-03T16:46:08;9.40;99.90
22742;DHT22;11538;48.884;8.696;2023-04-03T16:48:35;9.40;99.90
22742;DHT22;11538;48.884;8.696;2023-04-03T16:51:03;9.40;99.90
22742;DHT22;11538;48.884;8.696;2023-04-03T16:53:30;9.40;99.90
22742;DHT22;11538;48.884;8.696;2023-04-03T16:55:57;9.40;99.90
22742;DHT22;11538;48.884;8.696;2023-04-03T16:58:25;9.30;99.90
22742;DHT22;11538;48.884;8.696;2023-04-03T17:00:52;9.30;99.90
22742;DHT22;11538;48.884;8.696;2023-04-03T17:03:20;9.30;99.90
22742;DHT22;11538;48.884;8.696;2023-04-03T17:05:49;9.30;99.90
22742;DHT22;11538;48.884;8.696;2023-04-03T17:08:17;9.20;99.90
22742;DHT22;11538;48.884;8.696;2023-04-03T17:10:44;9.20;99.90
22742;DHT22;11538;48.884;8.696;2023-04-03T17:13:11;9.10;99.90
22742;DHT22;11538;48.884;8.696;2023-04-03T17:15:38;9.10;99.90
22742;DHT22;11538;48.884;8.696;2023-04-03T17:18:06;9.00;99.90
22742;DHT22;11538;48.884;8.696;2023-04-03T17:20:34;9.00;99.90
22742;DHT22;11538;48.884;8.696;2023-04-03T17:23:02;9.00;99.90
22742;DHT22;11538;48.884;8.696;2023-04-03T17:25:29;9.00;99.90
22742;DHT22;11538;48.884;8.696;2023-04-03T17:27:56;9.00;99.90
22742;DHT22;11538;48.884;8.696;2023-04-03T17:30:24;8.90;99.90
22742;DHT22;11538;48.884;8.696;2023-04-03T17:32:51;8.90;99.90